sensor_id;sensor_type;location;lat;lon;timestamp;P1;durP1;ratioP1;P2;durP2;ratioP2
19113;SDS011;9689;51.052;13.772;2023-04-15T00:01:57;6.75;;;4.90;;
19113;SDS011;9689;51.052;13.772;2023-04-15T00:06:58;6.50;;;5.03;;
19113;SDS011;9689;51.052;13.772;2023-04-15T00:11:58;6.90;;;4.93;;
19113;SDS011;9689;51.052;13.772;2023-04-15T00:17:01;5.72;;;4.40;;
19113;SDS011;9689;51.052;13.772;2023-04-15T00:22:02;5.72;;;4.20;;
19113;SDS011;9689;51.052;13.772;2023-04-15T00:27:03;6.38;;;3.67;;
19113;SDS011;9689;51.052;13.772;2023-04-15T00:32:05;5.97;;;3.25;;
19113;SDS011;9689;51.052;13.772;2023-04-15T00:37:07;4.07;;;3.35;;
19113;SDS011;9689;51.052;13.772;2023-04-15T00:42:08;4.80;;;3.20;;
19113;SDS011;9689;51.052;13.772;2023-04-15T00:47:12;3.40;;;2.55;;
19113;SDS011;9689;51.052;13.772;2023-04-15T00:52:13;4.68;;;3.67;;
19113;SDS011;9689;51.052;13.772;2023-04-15T00:57:14;4.32;;;3.20;;
19113;SDS011;9689;51.052;13.772;2023-04-15T01:02:16;4.70;;;3.53;;
19113;SDS011;9689;51.052;13.772;2023-04-15T01:07:17;3.97;;;3.10;;
19113;SDS011;9689;51.052;13.772;2023-04-15T01:12:18;8.18;;;3.25;;
19113;SDS011;9689;51.052;13.772;2023-04-15T01:17:21;4.53;;;3.45;;
19113;SDS011;9689;51.052;13.772;2023-04-15T01:22:23;6.20;;;3.50;;
19113;SDS011;9689;51.052;13.772;2023-04-15T01:27:26;3.60;;;2.92;;
19113;SDS011;9689;51.052;13.772;2023-04-15T01:32:27;5.40;;;4.22;;
19113;SDS011;9689;51.052;13.772;2023-04-15T01:37:28;5.07;;;4.00;;
19113;SDS011;9689;51.052;13.772;2023-04-15T01:42:31;5.75;;;4.07;;
19113;SDS011;9689;51.052;13.772;2023-04-15T01:47:32;5.78;;;4.15;;
19113;SDS011;9689;51.052;13.772;2023-04-15T01:52:33;6.25;;;4.22;;
19113;SDS011;9689;51.052;13.772;2023-04-15T01:57:35;5.90;;;4.45;;
19113;SDS011;9689;51.052;13.772;2023-04-15T02:02:38;5.80;;;4.45;;
19113;SDS011;9689;51.052;13.772;2023-04-15T02:07:38;5.65;;;4.47;;
19113;SDS011;9689;51.052;13.772;2023-04-15T02:12:41;5.95;;;4.53;;
19113;SDS011;9689;51.052;13.772;2023-04-15T02:17:42;6.13;;;4.22;;
19113;SDS011;9689;51.052;13.772;2023-04-15T02:22:49;5.60;;;4.38;;
19113;SDS011;9689;51.052;13.772;2023-04-15T02:27:51;6.72;;;5.00;;
19113;SDS011;9689;51.052;13.772;2023-04-15T02:32:52;7.63;;;5.20;;
19113;SDS011;9689;51.052;13.772;2023-04-15T02:37:56;5.47;;;4.45;;
19113;SDS011;9689;51.052;13.772;2023-04-15T02:42:58;6.55;;;5.03;;
19113;SDS011;9689;51.052;13.772;2023-04-15T02:48:00;6.28;;;4.72;;
19113;SDS011;9689;51.052;13.772;2023-04-15T02:53:04;6.70;;;5.25;;
19113;SDS011;9689;51.052;13.772;2023-04-15T02:58:06;6.93;;;4.93;;
19113;SDS011;9689;51.052;13.772;2023-04-15T03:03:07;7.13;;;5.13;;
19113;SDS011;9689;51.052;13.772;2023-04-15T03:08:09;5.55;;;4.60;;
19113;SDS011;9689;51.052;13.772;2023-04-15T03:13:11;5.88;;;4.70;;
19113;SDS011;9689;51.052;13.772;2023-04-15T03:18:12;5.88;;;4.75;;
19113;SDS011;9689;51.052;13.772;2023-04-15T03:23:13;7.20;;;5.45;;
19113;SDS011;9689;51.052;13.772;2023-04-15T03:28:15;7.55;;;5.32;;
19113;SDS011;9689;51.052;13.772;2023-04-15T03:33:16;5.78;;;4.32;;
19113;SDS011;9689;51.052;13.772;2023-04-15T03:38:16;6.45;;;5.05;;
19113;SDS011;9689;51.052;13.772;2023-04-15T03:43:18;6.53;;;4.95;;
19113;SDS011;9689;51.052;13.772;2023-04-15T03:48:19;6.28;;;5.05;;
19113;SDS011;9689;51.052;13.772;2023-04-15T03:53:20;7.53;;;5.50;;
19113;SDS011;9689;51.052;13.772;2023-04-15T03:58:22;8.98;;;6.20;;
19113;SDS011;9689;51.052;13.772;2023-04-15T04:03:23;7.97;;;6.18;;
19113;SDS011;9689;51.052;13.772;2023-04-15T04:08:24;7.35;;;5.72;;
19113;SDS011;9689;51.052;13.772;2023-04-15T04:13:27;10.68;;;6.30;;
19113;SDS011;9689;51.052;13.772;2023-04-15T04:18:27;9.02;;;6.53;;
19113;SDS011;9689;51.052;13.772;2023-04-15T04:23:28;6.82;;;5.43;;
19113;SDS011;9689;51.052;13.772;2023-04-15T04:28:30;8.48;;;6.38;;
19113;SDS011;9689;51.052;13.772;2023-04-15T04:33:30;9.15;;;6.95;;
19113;SDS011;9689;51.052;13.772;2023-04-15T04:38:31;9.95;;;7.07;;
19113;SDS011;9689;51.052;13.772;2023-04-15T04:43:33;13.13;;;7.30;;
19113;SDS011;9689;51.052;13.772;2023-04-15T04:48:34;10.45;;;7.68;;
19113;SDS011;9689;51.052;13.772;2023-04-15T04:53:35;9.02;;;6.95;;
19113;SDS011;9689;51.052;13.772;2023-04-15T04:58:37;9.45;;;7.18;;
19113;SDS011;9689;51.052;13.772;2023-04-15T05:03:38;10.68;;;6.55;;
19113;SDS011;9689;51.052;13.772;2023-04-15T05:08:39;8.52;;;6.18;;
19113;SDS011;9689;51.052;13.772;2023-04-15T05:13:41;11.40;;;6.90;;
19113;SDS011;9689;51.052;13.772;2023-04-15T05:18:42;10.10;;;6.75;;
19113;SDS011;9689;51.052;13.772;2023-04-15T05:23:42;9.13;;;6.55;;
19113;SDS011;9689;51.052;13.772;2023-04-15T05:28:44;9.02;;;6.45;;
19113;SDS011;9689;51.052;13.772;2023-04-15T05:33:46;9.65;;;6.68;;
19113;SDS011;9689;51.052;13.772;2023-04-15T05:38:46;10.00;;;6.53;;
19113;SDS011;9689;51.052;13.772;2023-04-15T05:43:48;9.60;;;6.05;;
19113;SDS011;9689;51.052;13.772;2023-04-15T05:48:49;9.63;;;5.82;;
19113;SDS011;9689;51.052;13.772;2023-04-15T05:53:50;10.10;;;6.00;;
19113;SDS011;9689;51.052;13.772;2023-04-15T05:58:52;5.40;;;4.00;;
19113;SDS011;9689;51.052;13.772;2023-04-15T06:03:53;6.68;;;3.88;;
19113;SDS011;9689;51.052;13.772;2023-04-15T06:08:54;4.90;;;2.75;;
19113;SDS011;9689;51.052;13.772;2023-04-15T06:13:57;4.55;;;2.63;;
19113;SDS011;9689;51.052;13.772;2023-04-15T06:18:57;3.60;;;2.53;;
19113;SDS011;9689;51.052;13.772;2023-04-15T06:23:58;2.38;;;1.80;;
19113;SDS011;9689;51.052;13.772;2023-04-15T06:29:01;4.22;;;2.13;;
19113;SDS011;9689;51.052;13.772;2023-04-15T06:34:02;4.75;;;2.30;;
19113;SDS011;9689;51.052;13.772;2023-04-15T06:39:03;5.22;;;2.35;;
19113;SDS011;9689;51.052;13.772;2023-04-15T06:44:05;4.13;;;2.13;;
19113;SDS011;9689;51.052;13.772;2023-04-15T06:49:05;2.20;;;1.27;;
19113;SDS011;9689;51.052;13.772;2023-04-15T06:54:06;1.80;;;1.30;;
19113;SDS011;9689;51.052;13.772;2023-04-15T06:59:08;1.95;;;1.30;;
19113;SDS011;9689;51.052;13.772;2023-04-15T07:04:09;2.60;;;1.52;;
19113;SDS011;9689;51.052;13.772;2023-04-15T07:09:10;1.00;;;0.90;;
19113;SDS011;9689;51.052;13.772;2023-04-15T07:14:13;1.35;;;0.70;;
19113;SDS011;9689;51.052;13.772;2023-04-15T07:19:13;3.15;;;0.70;;
19113;SDS011;9689;51.052;13.772;2023-04-15T07:24:14;2.47;;;0.85;;
19113;SDS011;9689;51.052;13.772;2023-04-15T07:29:19;1.00;;;0.70;;
19113;SDS011;9689;51.052;13.772;2023-04-15T07:34:19;1.25;;;0.90;;
19113;SDS011;9689;51.052;13.772;2023-04-15T07:39:20;5.70;;;0.90;;
19113;SDS011;9689;51.052;13.772;2023-04-15T07:44:22;0.80;;;0.80;;
19113;SDS011;9689;51.052;13.772;2023-04-15T07:49:23;1.08;;;0.85;;
19113;SDS011;9689;51.052;13.772;2023-04-15T07:54:24;1.45;;;0.73;;
19113;SDS011;9689;51.052;13.772;2023-04-15T07:59:27;0.75;;;0.75;;
19113;SDS011;9689;51.052;13.772;2023-04-15T08:04:31;1.13;;;0.90;;
19113;SDS011;9689;51.052;13.772;2023-04-15T08:09:32;1.85;;;1.00;;
19113;SDS011;9689;51.052;13.772;2023-04-15T08:14:35;1.38;;;0.77;;
19113;SDS011;9689;51.052;13.772;2023-04-15T08:19:35;0.98;;;0.80;;
19113;SDS011;9689;51.052;13.772;2023-04-15T08:24:36;2.05;;;0.93;;
19113;SDS011;9689;51.052;13.772;2023-04-15T08:29:41;2.45;;;0.93;;
19113;SDS011;9689;51.052;13.772;2023-04-15T08:34:41;2.03;;;1.20;;
19113;SDS011;9689;51.052;13.772;2023-04-15T08:39:42;2.15;;;1.17;;
19113;SDS011;9689;51.052;13.772;2023-04-15T08:44:45;1.20;;;1.02;;
19113;SDS011;9689;51.052;13.772;2023-04-15T08:49:47;1.70;;;1.17;;
19113;SDS011;9689;51.052;13.772;2023-04-15T08:54:53;1.75;;;1.20;;
19113;SDS011;9689;51.052;13.772;2023-04-15T08:59:58;2.17;;;1.77;;
19113;SDS011;9689;51.052;13.772;2023-04-15T09:05:04;2.17;;;1.95;;
19113;SDS011;9689;51.052;13.772;2023-04-15T09:10:06;3.45;;;2.28;;
19113;SDS011;9689;51.052;13.772;2023-04-15T09:15:10;3.60;;;2.35;;
19113;SDS011;9689;51.052;13.772;2023-04-15T09:20:12;3.47;;;2.80;;
19113;SDS011;9689;51.052;13.772;2023-04-15T09:25:29;3.38;;;2.70;;
19113;SDS011;9689;51.052;13.772;2023-04-15T09:30:34;4.60;;;3.03;;
19113;SDS011;9689;51.052;13.772;2023-04-15T09:35:35;4.85;;;2.65;;
19113;SDS011;9689;51.052;13.772;2023-04-15T09:40:37;3.50;;;2.60;;
19113;SDS011;9689;51.052;13.772;2023-04-15T09:45:45;3.85;;;2.60;;
19113;SDS011;9689;51.052;13.772;2023-04-15T09:50:48;3.63;;;2.88;;
19113;SDS011;9689;51.052;13.772;2023-04-15T09:55:52;3.58;;;2.72;;
19113;SDS011;9689;51.052;13.772;2023-04-15T10:00:55;3.42;;;2.63;;
19113;SDS011;9689;51.052;13.772;2023-04-15T10:05:57;7.18;;;3.05;;
19113;SDS011;9689;51.052;13.772;2023-04-15T10:11:00;3.65;;;2.83;;
19113;SDS011;9689;51.052;13.772;2023-04-15T10:16:04;3.95;;;2.70;;
19113;SDS011;9689;51.052;13.772;2023-04-15T10:21:06;4.03;;;2.80;;
19113;SDS011;9689;51.052;13.772;2023-04-15T10:26:08;4.47;;;2.83;;
19113;SDS011;9689;51.052;13.772;2023-04-15T10:31:12;3.80;;;2.88;;
19113;SDS011;9689;51.052;13.772;2023-04-15T10:36:14;4.47;;;2.63;;
19113;SDS011;9689;51.052;13.772;2023-04-15T10:41:17;3.72;;;2.97;;
19113;SDS011;9689;51.052;13.772;2023-04-15T10:46:35;4.13;;;2.80;;
19113;SDS011;9689;51.052;13.772;2023-04-15T10:51:37;4.72;;;3.45;;
19113;SDS011;9689;51.052;13.772;2023-04-15T10:56:40;2.90;;;2.22;;
19113;SDS011;9689;51.052;13.772;2023-04-15T11:01:51;3.55;;;2.67;;
19113;SDS011;9689;51.052;13.772;2023-04-15T11:07:03;2.90;;;2.50;;
19113;SDS011;9689;51.052;13.772;2023-04-15T11:12:06;3.28;;;2.40;;
19113;SDS011;9689;51.052;13.772;2023-04-15T11:17:09;4.72;;;2.47;;
19113;SDS011;9689;51.052;13.772;2023-04-15T11:22:10;2.72;;;2.10;;
19113;SDS011;9689;51.052;13.772;2023-04-15T11:27:18;3.78;;;2.15;;
19113;SDS011;9689;51.052;13.772;2023-04-15T11:32:21;3.90;;;2.00;;
19113;SDS011;9689;51.052;13.772;2023-04-15T11:37:26;3.38;;;1.67;;
19113;SDS011;9689;51.052;13.772;2023-04-15T11:42:28;1.98;;;1.42;;
19113;SDS011;9689;51.052;13.772;2023-04-15T11:47:48;2.13;;;1.50;;
19113;SDS011;9689;51.052;13.772;2023-04-15T11:52:52;1.50;;;1.20;;
19113;SDS011;9689;51.052;13.772;2023-04-15T11:58:05;1.88;;;1.30;;
19113;SDS011;9689;51.052;13.772;2023-04-15T12:03:12;1.58;;;1.38;;
19113;SDS011;9689;51.052;13.772;2023-04-15T12:08:18;1.90;;;1.30;;
19113;SDS011;9689;51.052;13.772;2023-04-15T12:13:18;1.90;;;1.27;;
19113;SDS011;9689;51.052;13.772;2023-04-15T12:18:20;1.80;;;1.20;;
19113;SDS011;9689;51.052;13.772;2023-04-15T12:23:21;2.50;;;1.23;;
19113;SDS011;9689;51.052;13.772;2023-04-15T12:28:22;4.75;;;1.40;;
19113;SDS011;9689;51.052;13.772;2023-04-15T12:33:24;2.47;;;1.50;;
19113;SDS011;9689;51.052;13.772;2023-04-15T12:38:32;1.60;;;1.17;;
19113;SDS011;9689;51.052;13.772;2023-04-15T12:43:32;1.67;;;1.08;;
19113;SDS011;9689;51.052;13.772;2023-04-15T12:48:35;1.40;;;1.10;;
19113;SDS011;9689;51.052;13.772;2023-04-15T12:53:35;1.83;;;1.20;;
19113;SDS011;9689;51.052;13.772;2023-04-15T12:58:36;2.13;;;0.98;;
19113;SDS011;9689;51.052;13.772;2023-04-15T13:03:38;2.05;;;1.38;;
19113;SDS011;9689;51.052;13.772;2023-04-15T13:08:39;3.28;;;1.50;;
19113;SDS011;9689;51.052;13.772;2023-04-15T13:13:53;2.00;;;1.20;;
19113;SDS011;9689;51.052;13.772;2023-04-15T13:18:56;2.55;;;1.52;;
19113;SDS011;9689;51.052;13.772;2023-04-15T13:23:57;1.45;;;1.30;;
19113;SDS011;9689;51.052;13.772;2023-04-15T13:28:58;2.53;;;1.50;;
19113;SDS011;9689;51.052;13.772;2023-04-15T13:34:01;4.75;;;1.92;;
19113;SDS011;9689;51.052;13.772;2023-04-15T13:39:02;3.55;;;1.88;;
19113;SDS011;9689;51.052;13.772;2023-04-15T13:44:03;2.60;;;1.73;;
19113;SDS011;9689;51.052;13.772;2023-04-15T13:49:06;3.17;;;1.80;;
19113;SDS011;9689;51.052;13.772;2023-04-15T13:54:07;2.90;;;1.83;;
19113;SDS011;9689;51.052;13.772;2023-04-15T13:59:08;2.70;;;1.60;;
19113;SDS011;9689;51.052;13.772;2023-04-15T14:04:10;2.60;;;1.58;;
19113;SDS011;9689;51.052;13.772;2023-04-15T14:09:11;3.40;;;1.88;;
19113;SDS011;9689;51.052;13.772;2023-04-15T14:14:12;3.38;;;1.88;;
19113;SDS011;9689;51.052;13.772;2023-04-15T14:19:15;3.55;;;1.50;;
19113;SDS011;9689;51.052;13.772;2023-04-15T14:24:16;3.13;;;1.40;;
19113;SDS011;9689;51.052;13.772;2023-04-15T14:29:17;2.97;;;1.60;;
19113;SDS011;9689;51.052;13.772;2023-04-15T14:34:19;2.70;;;1.48;;
19113;SDS011;9689;51.052;13.772;2023-04-15T14:39:20;1.48;;;1.17;;
19113;SDS011;9689;51.052;13.772;2023-04-15T14:44:21;1.50;;;1.17;;
19113;SDS011;9689;51.052;13.772;2023-04-15T14:49:23;3.03;;;1.60;;
19113;SDS011;9689;51.052;13.772;2023-04-15T14:54:24;2.90;;;1.35;;
19113;SDS011;9689;51.052;13.772;2023-04-15T14:59:25;1.77;;;1.25;;
19113;SDS011;9689;51.052;13.772;2023-04-15T15:04:28;1.50;;;1.20;;
19113;SDS011;9689;51.052;13.772;2023-04-15T15:09:31;4.43;;;1.73;;
19113;SDS011;9689;51.052;13.772;2023-04-15T15:14:33;2.63;;;1.33;;
19113;SDS011;9689;51.052;13.772;2023-04-15T15:19:35;2.42;;;1.20;;
19113;SDS011;9689;51.052;13.772;2023-04-15T15:24:36;2.40;;;1.30;;
19113;SDS011;9689;51.052;13.772;2023-04-15T15:29:36;3.55;;;1.58;;
19113;SDS011;9689;51.052;13.772;2023-04-15T15:34:38;2.63;;;1.50;;
19113;SDS011;9689;51.052;13.772;2023-04-15T15:39:39;3.67;;;1.30;;
19113;SDS011;9689;51.052;13.772;2023-04-15T15:44:40;2.35;;;1.30;;
19113;SDS011;9689;51.052;13.772;2023-04-15T15:49:42;3.13;;;1.58;;
19113;SDS011;9689;51.052;13.772;2023-04-15T15:54:42;2.13;;;1.35;;
19113;SDS011;9689;51.052;13.772;2023-04-15T15:59:43;1.83;;;1.20;;
19113;SDS011;9689;51.052;13.772;2023-04-15T16:04:45;1.80;;;1.17;;
19113;SDS011;9689;51.052;13.772;2023-04-15T16:09:48;3.83;;;2.15;;
19113;SDS011;9689;51.052;13.772;2023-04-15T16:14:49;1.92;;;1.20;;
19113;SDS011;9689;51.052;13.772;2023-04-15T16:19:51;2.63;;;1.38;;
19113;SDS011;9689;51.052;13.772;2023-04-15T16:24:59;3.85;;;1.25;;
19113;SDS011;9689;51.052;13.772;2023-04-15T16:30:00;2.13;;;1.10;;
19113;SDS011;9689;51.052;13.772;2023-04-15T16:35:02;1.52;;;1.08;;
19113;SDS011;9689;51.052;13.772;2023-04-15T16:40:04;4.95;;;1.67;;
19113;SDS011;9689;51.052;13.772;2023-04-15T16:45:05;2.10;;;1.35;;
19113;SDS011;9689;51.052;13.772;2023-04-15T16:50:08;1.95;;;1.27;;
19113;SDS011;9689;51.052;13.772;2023-04-15T16:55:10;1.33;;;1.10;;
19113;SDS011;9689;51.052;13.772;2023-04-15T17:00:11;3.83;;;1.50;;
19113;SDS011;9689;51.052;13.772;2023-04-15T17:05:13;1.30;;;0.90;;
19113;SDS011;9689;51.052;13.772;2023-04-15T17:10:14;1.48;;;1.13;;
19113;SDS011;9689;51.052;13.772;2023-04-15T17:15:15;1.92;;;1.25;;
19113;SDS011;9689;51.052;13.772;2023-04-15T17:20:18;3.30;;;1.42;;
19113;SDS011;9689;51.052;13.772;2023-04-15T17:25:19;2.22;;;1.27;;
19113;SDS011;9689;51.052;13.772;2023-04-15T17:30:20;2.38;;;1.30;;
19113;SDS011;9689;51.052;13.772;2023-04-15T17:35:22;3.47;;;1.85;;
19113;SDS011;9689;51.052;13.772;2023-04-15T17:40:24;2.75;;;1.90;;
19113;SDS011;9689;51.052;13.772;2023-04-15T17:45:25;4.28;;;1.67;;
19113;SDS011;9689;51.052;13.772;2023-04-15T17:50:27;2.33;;;1.60;;
19113;SDS011;9689;51.052;13.772;2023-04-15T17:55:28;2.47;;;1.50;;
19113;SDS011;9689;51.052;13.772;2023-04-15T18:00:29;2.80;;;1.60;;
19113;SDS011;9689;51.052;13.772;2023-04-15T18:05:31;2.63;;;1.60;;
19113;SDS011;9689;51.052;13.772;2023-04-15T18:10:32;2.78;;;2.10;;
19113;SDS011;9689;51.052;13.772;2023-04-15T18:15:34;6.85;;;2.80;;
19113;SDS011;9689;51.052;13.772;2023-04-15T18:20:37;4.60;;;2.60;;
19113;SDS011;9689;51.052;13.772;2023-04-15T18:25:37;4.85;;;3.08;;
19113;SDS011;9689;51.052;13.772;2023-04-15T18:30:41;4.60;;;3.17;;
19113;SDS011;9689;51.052;13.772;2023-04-15T18:35:43;7.97;;;3.90;;
19113;SDS011;9689;51.052;13.772;2023-04-15T18:40:46;11.90;;;4.93;;
19113;SDS011;9689;51.052;13.772;2023-04-15T18:45:47;9.77;;;5.00;;
19113;SDS011;9689;51.052;13.772;2023-04-15T18:50:49;8.68;;;5.22;;
19113;SDS011;9689;51.052;13.772;2023-04-15T18:55:52;10.40;;;5.63;;
19113;SDS011;9689;51.052;13.772;2023-04-15T19:00:54;11.38;;;4.85;;
19113;SDS011;9689;51.052;13.772;2023-04-15T19:05:56;12.15;;;6.20;;
19113;SDS011;9689;51.052;13.772;2023-04-15T19:10:57;8.63;;;5.10;;
19113;SDS011;9689;51.052;13.772;2023-04-15T19:15:57;10.90;;;5.63;;
19113;SDS011;9689;51.052;13.772;2023-04-15T19:21:01;10.77;;;5.18;;
19113;SDS011;9689;51.052;13.772;2023-04-15T19:26:02;7.20;;;4.63;;
19113;SDS011;9689;51.052;13.772;2023-04-15T19:31:03;6.78;;;4.18;;
19113;SDS011;9689;51.052;13.772;2023-04-15T19:36:06;8.82;;;4.75;;
19113;SDS011;9689;51.052;13.772;2023-04-15T19:41:06;12.55;;;5.25;;
19113;SDS011;9689;51.052;13.772;2023-04-15T19:46:08;13.48;;;5.82;;
19113;SDS011;9689;51.052;13.772;2023-04-15T19:51:13;10.48;;;5.97;;
19113;SDS011;9689;51.052;13.772;2023-04-15T19:56:13;12.20;;;6.68;;
19113;SDS011;9689;51.052;13.772;2023-04-15T20:01:15;12.30;;;5.78;;
19113;SDS011;9689;51.052;13.772;2023-04-15T20:06:17;11.65;;;6.20;;
19113;SDS011;9689;51.052;13.772;2023-04-15T20:11:17;13.38;;;7.97;;
19113;SDS011;9689;51.052;13.772;2023-04-15T20:16:19;11.23;;;7.32;;
19113;SDS011;9689;51.052;13.772;2023-04-15T20:21:21;26.25;;;13.60;;
19113;SDS011;9689;51.052;13.772;2023-04-15T20:26:22;21.80;;;12.18;;
19113;SDS011;9689;51.052;13.772;2023-04-15T20:31:23;20.08;;;10.25;;
19113;SDS011;9689;51.052;13.772;2023-04-15T20:36:31;18.42;;;9.60;;
19113;SDS011;9689;51.052;13.772;2023-04-15T20:41:37;20.73;;;10.23;;
19113;SDS011;9689;51.052;13.772;2023-04-15T20:46:38;20.98;;;9.98;;
19113;SDS011;9689;51.052;13.772;2023-04-15T20:51:41;14.60;;;9.13;;
19113;SDS011;9689;51.052;13.772;2023-04-15T20:56:42;13.63;;;8.00;;
19113;SDS011;9689;51.052;13.772;2023-04-15T21:01:42;15.68;;;8.50;;
19113;SDS011;9689;51.052;13.772;2023-04-15T21:06:45;14.68;;;7.72;;
19113;SDS011;9689;51.052;13.772;2023-04-15T21:11:46;13.73;;;7.30;;
19113;SDS011;9689;51.052;13.772;2023-04-15T21:16:50;13.63;;;7.45;;
19113;SDS011;9689;51.052;13.772;2023-04-15T21:21:52;12.60;;;7.18;;
19113;SDS011;9689;51.052;13.772;2023-04-15T21:26:53;11.25;;;6.63;;
19113;SDS011;9689;51.052;13.772;2023-04-15T21:31:54;10.40;;;6.75;;
19113;SDS011;9689;51.052;13.772;2023-04-15T21:36:59;10.65;;;6.65;;
19113;SDS011;9689;51.052;13.772;2023-04-15T21:42:00;12.02;;;7.07;;
19113;SDS011;9689;51.052;13.772;2023-04-15T21:47:01;11.45;;;6.70;;
19113;SDS011;9689;51.052;13.772;2023-04-15T21:52:03;10.75;;;6.18;;
19113;SDS011;9689;51.052;13.772;2023-04-15T21:57:04;14.10;;;6.30;;
19113;SDS011;9689;51.052;13.772;2023-04-15T22:02:05;8.88;;;6.22;;
19113;SDS011;9689;51.052;13.772;2023-04-15T22:07:07;8.25;;;5.60;;
19113;SDS011;9689;51.052;13.772;2023-04-15T22:12:09;12.23;;;6.20;;
19113;SDS011;9689;51.052;13.772;2023-04-15T22:17:09;8.95;;;5.85;;
19113;SDS011;9689;51.052;13.772;2023-04-15T22:22:11;9.23;;;5.55;;
19113;SDS011;9689;51.052;13.772;2023-04-15T22:27:12;9.48;;;5.72;;
19113;SDS011;9689;51.052;13.772;2023-04-15T22:32:12;10.75;;;5.45;;
19113;SDS011;9689;51.052;13.772;2023-04-15T22:37:14;10.68;;;5.75;;
19113;SDS011;9689;51.052;13.772;2023-04-15T22:42:15;11.23;;;5.15;;
19113;SDS011;9689;51.052;13.772;2023-04-15T22:47:16;10.68;;;5.43;;
19113;SDS011;9689;51.052;13.772;2023-04-15T22:52:18;12.48;;;6.57;;
19113;SDS011;9689;51.052;13.772;2023-04-15T22:57:29;11.18;;;6.88;;
19113;SDS011;9689;51.052;13.772;2023-04-15T23:02:29;14.00;;;7.15;;
19113;SDS011;9689;51.052;13.772;2023-04-15T23:07:32;12.93;;;7.72;;
19113;SDS011;9689;51.052;13.772;2023-04-15T23:12:32;11.05;;;6.90;;
19113;SDS011;9689;51.052;13.772;2023-04-15T23:17:33;16.33;;;8.07;;
19113;SDS011;9689;51.052;13.772;2023-04-15T23:22:35;13.35;;;8.32;;
19113;SDS011;9689;51.052;13.772;2023-04-15T23:27:36;16.98;;;9.77;;
19113;SDS011;9689;51.052;13.772;2023-04-15T23:32:37;16.25;;;10.52;;
19113;SDS011;9689;51.052;13.772;2023-04-15T23:37:39;18.25;;;11.35;;
19113;SDS011;9689;51.052;13.772;2023-04-15T23:42:39;13.18;;;9.70;;
19113;SDS011;9689;51.052;13.772;2023-04-15T23:47:40;16.25;;;10.80;;
19113;SDS011;9689;51.052;13.772;2023-04-15T23:52:42;18.80;;;10.57;;
19113;SDS011;9689;51.052;13.772;2023-04-15T23:57:43;16.65;;;10.05;;
